Time;durP1;ratioP1;P1;durP2;ratioP2;P2;SDS_P1;SDS_P2;PMS_P1;PMS_P2;Temp;Humidity;BMP_temperature;BMP_pressure;BME280_temperature;BME280_humidity;BME280_pressure;Samples;Min_cycle;Max_cycle;Signal;HPM_P1;HPM_P2
2022/04/05 00:01:29;;;;;;;15.93;2.03;;;;;;;;;;5083552;28;20056;-72
2022/04/05 00:03:56;;;;;;;16.98;2.30;;;;;;;;;;5081393;28;20473;-73
2022/04/05 00:06:23;;;;;;;22.95;2.58;;;;;;;;;;5081956;28;20442;-73
2022/04/05 00:08:51;;;;;;;20.67;1.70;;;;;;;;;;5082555;28;20067;-73
2022/04/05 00:11:19;;;;;;;14.35;1.85;;;;;;;;;;5082427;28;20044;-73
2022/04/05 00:13:46;;;;;;;10.98;1.67;;;;;;;;;;5084604;28;20112;-73
2022/04/05 00:16:14;;;;;;;12.52;1.58;;;;;;;;;;5085759;28;20105;-73
2022/04/05 00:18:41;;;;;;;14.35;1.88;;;;;;;;;;5082638;28;20052;-73
2022/04/05 00:21:08;;;;;;;15.93;1.92;;;;;;;;;;5085216;28;20402;-72
2022/04/05 00:23:36;;;;;;;14.50;1.55;;;;;;;;;;5084694;28;20056;-72
2022/04/05 00:26:03;;;;;;;13.77;1.73;;;;;;;;;;5086753;28;20052;-73
2022/04/05 00:28:32;;;;;;;16.45;1.75;;;;;;;;;;5084004;28;20056;-73
2022/04/05 00:30:59;;;;;;;14.45;1.75;;;;;;;;;;5079809;28;20445;-73
2022/04/05 00:33:26;;;;;;;16.42;2.30;;;;;;;;;;5079240;28;20050;-73
2022/04/05 00:35:53;;;;;;;13.93;2.63;;;;;;;;;;5081079;28;20056;-73
2022/04/05 00:38:20;;;;;;;12.82;1.80;;;;;;;;;;5084117;28;20056;-73
2022/04/05 00:40:48;;;;;;;11.65;1.75;;;;;;;;;;5086473;28;20351;-73
2022/04/05 00:43:15;;;;;;;24.27;2.35;;;;;;;;;;5084410;28;20048;-73
2022/04/05 00:45:43;;;;;;;20.25;2.60;;;;;;;;;;5079847;28;20113;-73
2022/04/05 00:48:11;;;;;;;16.75;2.20;;;;;;;;;;5083920;28;20758;-73
2022/04/05 00:50:38;;;;;;;17.67;2.22;;;;;;;;;;5084099;28;20113;-73
2022/04/05 00:53:07;;;;;;;21.30;2.60;;;;;;;;;;5080727;28;20051;-73
2022/04/05 00:55:35;;;;;;;23.00;2.63;;;;;;;;;;5083744;28;20052;-73
2022/04/05 00:58:03;;;;;;;26.13;3.55;;;;;;;;;;5081289;28;20049;-73
2022/04/05 01:00:30;;;;;;;20.67;2.38;;;;;;;;;;5083754;28;20117;-72
2022/04/05 01:02:59;;;;;;;16.75;2.42;;;;;;;;;;5081299;28;20495;-73
2022/04/05 01:05:28;;;;;;;22.92;2.50;;;;;;;;;;5085996;28;20121;-73
2022/04/05 01:07:56;;;;;;;24.33;2.92;;;;;;;;;;5081271;28;20510;-73
2022/04/05 01:10:23;;;;;;;19.58;2.05;;;;;;;;;;5082978;28;20126;-73
2022/04/05 01:12:50;;;;;;;13.80;2.10;;;;;;;;;;5079842;28;20048;-72
2022/04/05 01:15:18;;;;;;;19.33;2.75;;;;;;;;;;5079200;28;20053;-72
2022/04/05 01:17:45;;;;;;;26.50;3.47;;;;;;;;;;5079799;28;20059;-74
2022/04/05 01:20:14;;;;;;;20.55;2.58;;;;;;;;;;5081272;28;20060;-73
2022/04/05 01:22:48;;;;;;;25.48;3.17;;;;;;;;;;5086064;28;20098;-73
2022/04/05 01:25:17;;;;;;;20.83;2.80;;;;;;;;;;5079669;28;20056;-72
2022/04/05 01:27:45;;;;;;;20.10;3.33;;;;;;;;;;5083782;28;20059;-72
2022/04/05 01:30:12;;;;;;;22.88;2.90;;;;;;;;;;5083269;28;20086;-73
2022/04/05 01:32:40;;;;;;;24.90;3.17;;;;;;;;;;5083530;28;20127;-73
2022/04/05 01:35:07;;;;;;;23.38;3.40;;;;;;;;;;5085420;28;20059;-73
2022/04/05 01:37:34;;;;;;;20.08;2.85;;;;;;;;;;5081665;28;20062;-73
2022/04/05 01:40:02;;;;;;;24.20;3.10;;;;;;;;;;5082375;28;20060;-73
2022/04/05 01:42:31;;;;;;;22.88;2.80;;;;;;;;;;5112491;27;20059;-73
2022/04/05 01:44:58;;;;;;;26.13;3.17;;;;;;;;;;5083874;28;20079;-73
2022/04/05 01:47:25;;;;;;;30.60;3.33;;;;;;;;;;5078662;28;20060;-73
2022/04/05 01:49:52;;;;;;;33.60;3.45;;;;;;;;;;5079334;28;20064;-73
2022/04/05 01:52:20;;;;;;;25.02;3.25;;;;;;;;;;5081507;28;20367;-72
2022/04/05 01:54:47;;;;;;;21.35;2.72;;;;;;;;;;5077258;28;20073;-73
2022/04/05 01:57:15;;;;;;;29.92;3.42;;;;;;;;;;5081379;28;20047;-73
2022/04/05 01:59:44;;;;;;;29.23;3.10;;;;;;;;;;5078159;28;20144;-72
2022/04/05 02:02:12;;;;;;;33.72;3.35;;;;;;;;;;5083213;28;20123;-73
2022/04/05 02:04:40;;;;;;;27.40;2.88;;;;;;;;;;5083876;28;20198;-73
2022/04/05 02:07:11;;;;;;;28.58;3.70;;;;;;;;;;5085051;28;20044;-73
2022/04/05 02:09:39;;;;;;;22.15;2.78;;;;;;;;;;5083738;28;20060;-73
2022/04/05 02:12:06;;;;;;;30.00;3.00;;;;;;;;;;5085220;28;20043;-73
2022/04/05 02:14:34;;;;;;;27.27;3.72;;;;;;;;;;5083327;28;20056;-73
2022/04/05 02:17:02;;;;;;;19.88;2.65;;;;;;;;;;5082096;28;20051;-73
2022/04/05 02:19:29;;;;;;;25.02;2.97;;;;;;;;;;5118887;27;20055;-73
2022/04/05 02:21:57;;;;;;;28.40;3.33;;;;;;;;;;5087099;28;20109;-73
2022/04/05 02:24:24;;;;;;;24.27;3.20;;;;;;;;;;5086504;28;20047;-73
2022/04/05 02:26:51;;;;;;;29.48;3.28;;;;;;;;;;5087567;28;20494;-73
2022/04/05 02:29:19;;;;;;;22.60;3.08;;;;;;;;;;5086632;28;20506;-72
2022/04/05 02:31:46;;;;;;;29.15;4.20;;;;;;;;;;5087809;28;20104;-73
2022/04/05 02:34:15;;;;;;;33.65;2.90;;;;;;;;;;5083148;28;20044;-72
2022/04/05 02:36:42;;;;;;;25.50;3.60;;;;;;;;;;5086610;28;20067;-73
2022/04/05 02:39:11;;;;;;;19.67;2.88;;;;;;;;;;5082660;28;20064;-73
2022/04/05 02:41:38;;;;;;;29.60;3.38;;;;;;;;;;5085702;28;20535;-73
2022/04/05 02:44:06;;;;;;;30.30;3.50;;;;;;;;;;5085571;28;20131;-73
2022/04/05 02:46:33;;;;;;;34.53;4.88;;;;;;;;;;5088998;28;20138;-73
2022/04/05 02:49:01;;;;;;;28.02;3.85;;;;;;;;;;5083902;28;20047;-72
2022/04/05 02:51:29;;;;;;;25.98;2.65;;;;;;;;;;5086180;28;20456;-72
2022/04/05 02:53:57;;;;;;;19.40;2.80;;;;;;;;;;5113781;27;20087;-73
2022/04/05 02:56:24;;;;;;;24.95;2.95;;;;;;;;;;5086792;28;20052;-73
2022/04/05 02:58:51;;;;;;;25.92;2.90;;;;;;;;;;5080880;28;20811;-72
2022/04/05 03:01:18;;;;;;;19.60;3.17;;;;;;;;;;5086314;28;20048;-74
2022/04/05 03:03:47;;;;;;;23.83;3.17;;;;;;;;;;5086327;28;20048;-72
2022/04/05 03:06:14;;;;;;;22.88;2.72;;;;;;;;;;5085592;28;20051;-75
2022/04/05 03:08:43;;;;;;;25.73;3.28;;;;;;;;;;5087082;28;20047;-73
2022/04/05 03:11:11;;;;;;;27.38;3.53;;;;;;;;;;5075057;28;20097;-72
2022/04/05 03:13:39;;;;;;;21.00;2.92;;;;;;;;;;5085126;28;20084;-72
2022/04/05 03:16:06;;;;;;;26.73;3.20;;;;;;;;;;5083724;28;20079;-72
2022/04/05 03:18:34;;;;;;;28.00;3.35;;;;;;;;;;5084904;28;20052;-73
2022/04/05 03:21:01;;;;;;;24.83;3.30;;;;;;;;;;5085662;28;20064;-73
2022/04/05 03:23:29;;;;;;;26.17;3.03;;;;;;;;;;5083655;28;20043;-73
2022/04/05 03:25:57;;;;;;;30.90;3.88;;;;;;;;;;5082426;28;20051;-73
2022/04/05 03:28:25;;;;;;;32.65;3.80;;;;;;;;;;5083300;28;20106;-73
2022/04/05 03:30:52;;;;;;;31.80;3.15;;;;;;;;;;5084454;28;20064;-73
2022/04/05 03:33:20;;;;;;;25.58;3.42;;;;;;;;;;5085847;28;20540;-73
2022/04/05 03:35:47;;;;;;;32.65;4.07;;;;;;;;;;5083968;28;20056;-73
2022/04/05 03:38:14;;;;;;;29.17;3.88;;;;;;;;;;5085451;28;20056;-72
2022/04/05 03:40:41;;;;;;;27.70;3.55;;;;;;;;;;5083699;28;20056;-72
2022/04/05 03:43:12;;;;;;;35.95;4.38;;;;;;;;;;5085341;28;20051;-72
2022/04/05 03:45:39;;;;;;;26.45;3.65;;;;;;;;;;5085280;28;20052;-72
2022/04/05 03:48:07;;;;;;;34.60;4.65;;;;;;;;;;5087746;28;20487;-72
2022/04/05 03:50:34;;;;;;;26.30;3.50;;;;;;;;;;5084562;28;20109;-73
2022/04/05 03:53:01;;;;;;;36.72;4.18;;;;;;;;;;5082006;28;20063;-72
2022/04/05 03:55:29;;;;;;;28.67;3.83;;;;;;;;;;5084018;28;20047;-72
2022/04/05 03:57:56;;;;;;;31.50;4.18;;;;;;;;;;5088252;28;20177;-72
2022/04/05 04:00:24;;;;;;;24.05;3.53;;;;;;;;;;5083536;28;20105;-72
2022/04/05 04:02:52;;;;;;;32.40;4.50;;;;;;;;;;5082382;28;20052;-73
2022/04/05 04:05:20;;;;;;;27.70;3.67;;;;;;;;;;5084214;28;20048;-73
2022/04/05 04:07:49;;;;;;;33.15;4.60;;;;;;;;;;5082777;28;20055;-72
2022/04/05 04:10:16;;;;;;;35.58;4.47;;;;;;;;;;5084892;28;20143;-72
2022/04/05 04:12:43;;;;;;;29.88;4.18;;;;;;;;;;5084166;28;20056;-72
2022/04/05 04:15:12;;;;;;;31.15;4.38;;;;;;;;;;5085385;28;20047;-72
2022/04/05 04:17:40;;;;;;;30.60;4.20;;;;;;;;;;5114622;27;20071;-72
2022/04/05 04:20:08;;;;;;;39.97;5.13;;;;;;;;;;5085206;28;20474;-72
2022/04/05 04:22:36;;;;;;;37.85;4.95;;;;;;;;;;5084908;28;20059;-72
2022/04/05 04:25:03;;;;;;;26.58;4.25;;;;;;;;;;5087188;28;20044;-72
2022/04/05 04:27:30;;;;;;;20.50;3.55;;;;;;;;;;5126353;27;20468;-73
2022/04/05 04:29:57;;;;;;;21.77;3.50;;;;;;;;;;5087730;28;20052;-72
2022/04/05 04:32:24;;;;;;;29.92;3.65;;;;;;;;;;5088401;28;20064;-72
2022/04/05 04:34:53;;;;;;;35.15;3.72;;;;;;;;;;5082526;28;20058;-73
2022/04/05 04:37:20;;;;;;;31.35;3.17;;;;;;;;;;5082594;28;20048;-73
2022/04/05 04:39:47;;;;;;;26.63;3.25;;;;;;;;;;5085858;28;20051;-72
2022/04/05 04:42:15;;;;;;;28.90;3.47;;;;;;;;;;5075060;28;20441;-72
2022/04/05 04:44:42;;;;;;;26.77;3.28;;;;;;;;;;5082342;28;20044;-73
2022/04/05 04:47:09;;;;;;;23.02;3.00;;;;;;;;;;5084800;28;20048;-73
2022/04/05 04:49:36;;;;;;;30.20;3.63;;;;;;;;;;5081010;28;20044;-72
2022/04/05 04:52:05;;;;;;;27.42;3.33;;;;;;;;;;5085634;28;20044;-73
2022/04/05 04:54:33;;;;;;;27.52;3.05;;;;;;;;;;5087790;28;20048;-72
2022/04/05 04:57:00;;;;;;;34.05;2.85;;;;;;;;;;5085894;28;20196;-73
2022/04/05 04:59:27;;;;;;;19.77;3.35;;;;;;;;;;5088562;28;20059;-73
2022/04/05 05:01:54;;;;;;;24.65;3.00;;;;;;;;;;5082226;28;20055;-73
2022/04/05 05:04:21;;;;;;;29.60;3.20;;;;;;;;;;5086520;28;20044;-73
2022/04/05 05:06:51;;;;;;;28.75;2.97;;;;;;;;;;5089243;28;20463;-73
2022/04/05 05:09:19;;;;;;;23.85;2.75;;;;;;;;;;5089461;28;20112;-73
2022/04/05 05:11:47;;;;;;;21.00;3.15;;;;;;;;;;5081608;28;20060;-73
2022/04/05 05:14:14;;;;;;;25.67;3.05;;;;;;;;;;5089338;28;20055;-73
2022/04/05 05:16:41;;;;;;;18.70;2.70;;;;;;;;;;5081190;28;20548;-72
2022/04/05 05:19:09;;;;;;;25.42;2.78;;;;;;;;;;5109375;27;20066;-72
2022/04/05 05:21:36;;;;;;;27.30;4.30;;;;;;;;;;5072791;28;20102;-72
2022/04/05 05:24:03;;;;;;;29.67;3.30;;;;;;;;;;5072717;28;20080;-72
2022/04/05 05:26:32;;;;;;;26.52;3.08;;;;;;;;;;5074532;28;20098;-72
2022/04/05 05:28:59;;;;;;;24.10;3.05;;;;;;;;;;5079983;28;20105;-72
2022/04/05 05:31:26;;;;;;;21.15;2.92;;;;;;;;;;5114187;27;20411;-72
2022/04/05 05:33:54;;;;;;;22.15;2.35;;;;;;;;;;5082906;28;20094;-72
2022/04/05 05:36:21;;;;;;;23.10;2.70;;;;;;;;;;5113000;27;20158;-73
2022/04/05 05:38:48;;;;;;;23.02;3.00;;;;;;;;;;5087302;28;20730;-73
2022/04/05 05:41:15;;;;;;;16.40;2.20;;;;;;;;;;5083041;28;20059;-73
2022/04/05 05:43:45;;;;;;;18.33;2.33;;;;;;;;;;5090820;28;20149;-73
2022/04/05 05:46:12;;;;;;;13.13;2.15;;;;;;;;;;5115045;27;20419;-73
2022/04/05 05:48:39;;;;;;;15.32;1.85;;;;;;;;;;5090806;28;20074;-73
2022/04/05 05:51:07;;;;;;;22.73;2.83;;;;;;;;;;5088790;28;20044;-72
2022/04/05 05:53:34;;;;;;;18.00;2.13;;;;;;;;;;5094780;28;20455;-73
2022/04/05 05:56:02;;;;;;;17.23;1.70;;;;;;;;;;5098977;28;20039;-72
2022/04/05 05:58:29;;;;;;;16.25;1.73;;;;;;;;;;5087007;28;20405;-73
2022/04/05 06:00:58;;;;;;;13.85;1.50;;;;;;;;;;5086965;28;20070;-73
2022/04/05 06:03:25;;;;;;;15.13;1.85;;;;;;;;;;5092594;28;20060;-73
2022/04/05 06:05:52;;;;;;;18.70;2.17;;;;;;;;;;5087774;28;20052;-73
2022/04/05 06:08:20;;;;;;;13.30;1.70;;;;;;;;;;5083216;28;20051;-73
2022/04/05 06:10:47;;;;;;;17.75;1.80;;;;;;;;;;5087383;28;20154;-73
2022/04/05 06:13:15;;;;;;;15.35;1.35;;;;;;;;;;5085084;28;20048;-73
2022/04/05 06:15:42;;;;;;;15.57;2.13;;;;;;;;;;5115314;27;20052;-72
2022/04/05 06:18:10;;;;;;;15.90;2.15;;;;;;;;;;5089517;28;20068;-72
2022/04/05 06:20:38;;;;;;;15.48;2.15;;;;;;;;;;5084897;28;20104;-73
2022/04/05 06:23:06;;;;;;;18.38;2.75;;;;;;;;;;5088266;28;20402;-73
2022/04/05 06:25:34;;;;;;;11.75;1.60;;;;;;;;;;5090937;28;20046;-73
2022/04/05 06:28:02;;;;;;;12.98;1.48;;;;;;;;;;5086413;28;20482;-73
2022/04/05 06:30:30;;;;;;;14.38;1.52;;;;;;;;;;5080441;28;20041;-73
2022/04/05 06:33:05;;;;;;;13.00;1.88;;;;;;;;;;5088300;28;20120;-73
2022/04/05 06:35:34;;;;;;;11.52;1.50;;;;;;;;;;5084993;28;20054;-73
2022/04/05 06:38:01;;;;;;;16.85;1.23;;;;;;;;;;5084015;28;20055;-73
2022/04/05 06:40:28;;;;;;;21.10;2.00;;;;;;;;;;5089811;28;20054;-73
2022/04/05 06:42:56;;;;;;;15.90;2.08;;;;;;;;;;5086322;28;20454;-73
2022/04/05 06:45:24;;;;;;;12.95;1.70;;;;;;;;;;5092473;28;20770;-72
2022/04/05 06:47:52;;;;;;;14.95;1.67;;;;;;;;;;5091454;28;20063;-73
2022/04/05 06:50:24;;;;;;;10.65;1.60;;;;;;;;;;5081013;28;20131;-73
2022/04/05 06:52:53;;;;;;;12.73;1.70;;;;;;;;;;5113104;27;20088;-73
2022/04/05 06:55:20;;;;;;;15.15;1.50;;;;;;;;;;5080768;28;20499;-73
2022/04/05 06:57:47;;;;;;;15.80;1.73;;;;;;;;;;5086247;28;20132;-72
2022/04/05 07:00:17;;;;;;;12.93;2.08;;;;;;;;;;5112146;27;20537;-72
2022/04/05 07:02:44;;;;;;;14.15;2.53;;;;;;;;;;5082158;28;20528;-72
2022/04/05 07:05:11;;;;;;;11.52;1.52;;;;;;;;;;5082813;28;20048;-72
2022/04/05 07:07:39;;;;;;;13.45;1.52;;;;;;;;;;5080984;28;20056;-72
2022/04/05 07:10:10;;;;;;;15.32;1.80;;;;;;;;;;5083125;28;20257;-72
2022/04/05 07:12:37;;;;;;;16.42;1.85;;;;;;;;;;5083971;28;20066;-73
2022/04/05 07:15:05;;;;;;;13.32;1.83;;;;;;;;;;5082378;28;20147;-73
2022/04/05 07:17:32;;;;;;;18.75;2.70;;;;;;;;;;5081184;28;20048;-72
2022/04/05 07:20:00;;;;;;;12.80;1.73;;;;;;;;;;5080799;28;20667;-73
2022/04/05 07:22:27;;;;;;;12.88;1.65;;;;;;;;;;5082382;28;20050;-72
2022/04/05 07:24:55;;;;;;;11.13;1.40;;;;;;;;;;5077607;28;20056;-72
2022/04/05 07:27:23;;;;;;;11.52;1.83;;;;;;;;;;5083946;28;20048;-73
2022/04/05 07:29:50;;;;;;;16.40;2.33;;;;;;;;;;5083622;28;20051;-73
2022/04/05 07:32:18;;;;;;;13.85;2.20;;;;;;;;;;5086955;28;20044;-73
2022/04/05 07:34:45;;;;;;;13.10;1.70;;;;;;;;;;5088140;28;20044;-73
2022/04/05 07:37:12;;;;;;;12.70;1.50;;;;;;;;;;5088096;28;20072;-72
2022/04/05 07:39:40;;;;;;;17.17;2.00;;;;;;;;;;5089704;28;20048;-74
2022/04/05 07:42:08;;;;;;;11.25;1.60;;;;;;;;;;5085888;28;20048;-73
2022/04/05 07:44:37;;;;;;;13.75;2.03;;;;;;;;;;5085662;28;20040;-76
2022/04/05 07:47:05;;;;;;;10.13;1.80;;;;;;;;;;5081724;28;20052;-72
2022/04/05 07:49:32;;;;;;;12.32;1.73;;;;;;;;;;5082115;28;20056;-72
2022/04/05 07:52:00;;;;;;;18.42;2.33;;;;;;;;;;5084073;28;20056;-73
2022/04/05 07:54:27;;;;;;;11.50;2.08;;;;;;;;;;5090574;28;20044;-71
2022/04/05 07:56:54;;;;;;;10.85;1.92;;;;;;;;;;5093912;28;20771;-72
2022/04/05 07:59:21;;;;;;;11.93;1.58;;;;;;;;;;5090938;28;20059;-73
2022/04/05 08:01:50;;;;;;;30.27;3.15;;;;;;;;;;5093268;28;20064;-73
2022/04/05 08:04:17;;;;;;;9.32;1.55;;;;;;;;;;5084466;28;20117;-73
2022/04/05 08:06:44;;;;;;;8.10;1.30;;;;;;;;;;5084030;28;20426;-73
2022/04/05 08:09:12;;;;;;;12.20;1.73;;;;;;;;;;5088736;28;20513;-73
2022/04/05 08:11:39;;;;;;;8.77;2.05;;;;;;;;;;5082550;28;20062;-74
2022/04/05 08:14:06;;;;;;;10.35;1.67;;;;;;;;;;5083183;28;20059;-74
2022/04/05 08:16:34;;;;;;;8.27;1.52;;;;;;;;;;5084272;28;20052;-74
2022/04/05 08:19:04;;;;;;;10.15;1.98;;;;;;;;;;5087715;28;20429;-73
2022/04/05 08:21:31;;;;;;;9.85;1.60;;;;;;;;;;5077562;28;20040;-73
2022/04/05 08:23:58;;;;;;;12.07;2.50;;;;;;;;;;5081313;28;20055;-73
2022/04/05 08:26:26;;;;;;;7.80;1.50;;;;;;;;;;5087823;28;20444;-73
2022/04/05 08:28:55;;;;;;;12.07;1.83;;;;;;;;;;5082193;28;20059;-73
2022/04/05 08:31:22;;;;;;;8.23;1.52;;;;;;;;;;5118077;27;20507;-73
2022/04/05 08:33:50;;;;;;;6.43;1.23;;;;;;;;;;5085010;28;20058;-72
2022/04/05 08:36:18;;;;;;;9.20;1.48;;;;;;;;;;5085267;28;20497;-73
2022/04/05 08:38:46;;;;;;;8.65;1.58;;;;;;;;;;5084790;28;20544;-73
2022/04/05 08:41:14;;;;;;;7.97;1.40;;;;;;;;;;5112196;27;20106;-73
2022/04/05 08:43:43;;;;;;;6.55;1.48;;;;;;;;;;5077633;28;20060;-73
2022/04/05 08:46:11;;;;;;;5.68;1.20;;;;;;;;;;5077485;28;20047;-73
2022/04/05 08:48:38;;;;;;;10.00;1.58;;;;;;;;;;5078311;28;20156;-73
2022/04/05 08:51:06;;;;;;;7.82;1.33;;;;;;;;;;5087044;28;20044;-73
2022/04/05 08:53:35;;;;;;;11.45;1.73;;;;;;;;;;5084096;28;20044;-73
2022/04/05 08:56:02;;;;;;;11.30;1.63;;;;;;;;;;5082236;28;20043;-73
2022/04/05 08:58:29;;;;;;;5.03;1.20;;;;;;;;;;5082849;28;20063;-73
2022/04/05 09:00:57;;;;;;;7.00;1.15;;;;;;;;;;5083359;28;20068;-73
2022/04/05 09:03:24;;;;;;;9.90;1.80;;;;;;;;;;5080725;28;20483;-74
2022/04/05 09:05:51;;;;;;;6.32;1.60;;;;;;;;;;5083814;28;20124;-73
2022/04/05 09:08:22;;;;;;;4.43;1.40;;;;;;;;;;5083121;28;20491;-74
2022/04/05 09:10:52;;;;;;;6.97;1.35;;;;;;;;;;5117822;27;20883;-74
2022/04/05 09:13:22;;;;;;;5.80;1.75;;;;;;;;;;5080891;28;20708;-73
2022/04/05 09:15:51;;;;;;;8.85;1.88;;;;;;;;;;5075588;28;20056;-73
2022/04/05 09:18:44;;;;;;;4.30;1.55;;;;;;;;;;5079832;28;20105;-73
2022/04/05 09:21:13;;;;;;;3.17;1.20;;;;;;;;;;5060556;28;20084;-74
2022/04/05 09:23:42;;;;;;;3.90;1.08;;;;;;;;;;5081003;28;20109;-73
2022/04/05 09:26:11;;;;;;;5.05;1.17;;;;;;;;;;5076274;28;20685;-73
2022/04/05 09:28:39;;;;;;;5.95;1.55;;;;;;;;;;5081727;28;20402;-74
2022/04/05 09:31:07;;;;;;;5.00;1.10;;;;;;;;;;5083345;28;20048;-74
2022/04/05 09:33:36;;;;;;;4.88;1.30;;;;;;;;;;5090384;28;20064;-74
2022/04/05 09:36:13;;;;;;;3.65;1.33;;;;;;;;;;5094882;28;20513;-74
2022/04/05 09:38:42;;;;;;;4.22;0.95;;;;;;;;;;5095663;28;20144;-74
2022/04/05 09:41:15;;;;;;;3.47;1.13;;;;;;;;;;5083049;28;20063;-74
2022/04/05 09:43:52;;;;;;;3.28;0.75;;;;;;;;;;5090184;28;20071;-74
2022/04/05 09:46:20;;;;;;;3.13;0.70;;;;;;;;;;5079103;28;20044;-73
2022/04/05 09:48:47;;;;;;;5.85;0.80;;;;;;;;;;5111648;27;20056;-74
2022/04/05 09:51:16;;;;;;;1.45;0.70;;;;;;;;;;5084731;28;21040;-74
2022/04/05 09:53:45;;;;;;;4.10;1.40;;;;;;;;;;5084229;28;20542;-74
2022/04/05 09:56:15;;;;;;;3.15;0.98;;;;;;;;;;5115705;27;20045;-74
2022/04/05 09:58:47;;;;;;;6.53;1.60;;;;;;;;;;5079620;28;20052;-73
2022/04/05 10:01:15;;;;;;;6.90;2.00;;;;;;;;;;5079736;28;20059;-74
2022/04/05 10:03:42;;;;;;;3.70;1.75;;;;;;;;;;5080842;28;20055;-74
2022/04/05 10:06:10;;;;;;;5.85;1.67;;;;;;;;;;5088454;28;20051;-74
2022/04/05 10:08:38;;;;;;;3.05;1.58;;;;;;;;;;5090198;28;20048;-74
2022/04/05 10:11:05;;;;;;;2.55;1.02;;;;;;;;;;5088073;28;20057;-73
2022/04/05 10:13:33;;;;;;;3.33;1.02;;;;;;;;;;5087252;28;20055;-73
2022/04/05 10:16:01;;;;;;;3.45;0.88;;;;;;;;;;5108172;27;20052;-73
2022/04/05 10:18:33;;;;;;;1.48;0.50;;;;;;;;;;5082565;28;20059;-74
2022/04/05 10:21:02;;;;;;;1.65;0.75;;;;;;;;;;5081735;28;20056;-74
2022/04/05 10:23:29;;;;;;;2.00;0.75;;;;;;;;;;5081647;28;20200;-74
2022/04/05 10:25:57;;;;;;;2.78;0.85;;;;;;;;;;5119793;27;20037;-74
2022/04/05 10:28:26;;;;;;;1.05;0.60;;;;;;;;;;5080214;28;20052;-73
2022/04/05 10:30:58;;;;;;;1.73;0.70;;;;;;;;;;5084939;28;20109;-74
2022/04/05 10:33:29;;;;;;;1.42;0.90;;;;;;;;;;5088096;28;20445;-74
2022/04/05 10:36:00;;;;;;;2.72;1.33;;;;;;;;;;5080342;28;20040;-74
2022/04/05 10:38:27;;;;;;;1.98;1.10;;;;;;;;;;5078914;28;20055;-74
2022/04/05 10:41:19;;;;;;;3.55;1.30;;;;;;;;;;5110009;27;20048;-74
2022/04/05 10:43:47;;;;;;;2.38;1.27;;;;;;;;;;5080933;28;20048;-74
2022/04/05 10:46:14;;;;;;;2.28;1.40;;;;;;;;;;5082322;28;20044;-74
2022/04/05 10:48:59;;;;;;;2.17;1.48;;;;;;;;;;5116570;27;20599;-74
2022/04/05 10:51:32;;;;;;;2.25;1.40;;;;;;;;;;5085008;28;20053;-74
2022/04/05 10:56:40;;;;;;;2.60;1.50;;;;;;;;;;5085253;28;19939;-74
2022/04/05 10:59:19;;;;;;;2.20;1.35;;;;;;;;;;5122724;27;20490;-74
2022/04/05 11:01:46;;;;;;;2.25;1.50;;;;;;;;;;5086067;28;20503;-74
2022/04/05 11:04:32;;;;;;;2.42;1.65;;;;;;;;;;5088264;28;20066;-74
2022/04/05 11:07:12;;;;;;;2.13;1.58;;;;;;;;;;5084169;28;20123;-74
2022/04/05 11:09:44;;;;;;;2.78;1.90;;;;;;;;;;5085588;28;20052;-74
2022/04/05 11:12:12;;;;;;;3.72;2.33;;;;;;;;;;5088370;28;20143;-74
2022/04/05 11:14:40;;;;;;;4.05;2.25;;;;;;;;;;5086374;28;20055;-74
2022/04/05 11:17:07;;;;;;;3.67;2.40;;;;;;;;;;5082710;28;20059;-74
2022/04/05 11:19:36;;;;;;;3.00;2.30;;;;;;;;;;5091715;28;20059;-75
2022/04/05 11:22:05;;;;;;;2.92;2.30;;;;;;;;;;5123227;27;20075;-74
2022/04/05 11:24:51;;;;;;;4.35;2.50;;;;;;;;;;5083475;28;20498;-74
2022/04/05 11:27:31;;;;;;;3.85;2.63;;;;;;;;;;5088151;28;20379;-75
2022/04/05 11:30:17;;;;;;;4.93;2.50;;;;;;;;;;5079438;28;20055;-74
2022/04/05 11:32:59;;;;;;;3.40;2.70;;;;;;;;;;5091120;28;20048;-73
2022/04/05 11:35:29;;;;;;;4.20;2.47;;;;;;;;;;5075451;28;20056;-74
2022/04/05 11:37:56;;;;;;;4.57;3.00;;;;;;;;;;5084835;28;20046;-74
2022/04/05 11:40:23;;;;;;;3.55;3.10;;;;;;;;;;5095931;28;20458;-74
2022/04/05 11:42:51;;;;;;;10.18;3.70;;;;;;;;;;5090589;28;20063;-75
2022/04/05 11:45:18;;;;;;;4.35;3.08;;;;;;;;;;5087196;28;20387;-74
2022/04/05 11:47:52;;;;;;;4.20;2.40;;;;;;;;;;5090117;28;20121;-75
2022/04/05 11:50:19;;;;;;;;;;;;;;;;;;5086195;28;20063;-74
2022/04/05 11:52:47;;;;;;;2.75;2.25;;;;;;;;;;5084667;28;19924;-75
2022/04/05 11:58:03;;;;;;;5.22;3.85;;;;;;;;;;5116241;27;20051;-75
2022/04/05 12:00:30;;;;;;;5.95;4.30;;;;;;;;;;5117098;27;20504;-74
2022/04/05 12:03:03;;;;;;;5.25;4.07;;;;;;;;;;5084045;28;20051;-74
2022/04/05 12:05:41;;;;;;;7.13;4.72;;;;;;;;;;5080190;28;20503;-74
2022/04/05 12:08:12;;;;;;;7.13;4.78;;;;;;;;;;5085933;28;20493;-74
2022/04/05 12:10:39;;;;;;;6.95;4.53;;;;;;;;;;5091238;28;20146;-74
2022/04/05 12:13:06;;;;;;;19.77;5.47;;;;;;;;;;5117123;27;20124;-74
2022/04/05 12:15:34;;;;;;;18.08;6.53;;;;;;;;;;5085345;28;20055;-74
2022/04/05 12:18:17;;;;;;;6.72;4.80;;;;;;;;;;5088491;28;20477;-74
2022/04/05 12:20:54;;;;;;;8.60;4.65;;;;;;;;;;5083390;28;20132;-74
2022/04/05 12:23:24;;;;;;;13.00;4.93;;;;;;;;;;5088850;28;20138;-75
2022/04/05 12:26:10;;;;;;;10.95;4.70;;;;;;;;;;5113083;27;20069;-75
2022/04/05 12:28:38;;;;;;;16.38;4.82;;;;;;;;;;5089989;28;20062;-74
2022/04/05 12:31:13;;;;;;;17.17;5.97;;;;;;;;;;5085066;28;20528;-75
2022/04/05 12:33:41;;;;;;;17.20;6.53;;;;;;;;;;5120875;27;20047;-74
2022/04/05 12:36:09;;;;;;;22.80;6.90;;;;;;;;;;5094070;28;20066;-74
2022/04/05 12:38:37;;;;;;;26.40;7.60;;;;;;;;;;5114925;27;20090;-74
2022/04/05 12:41:05;;;;;;;29.70;8.43;;;;;;;;;;5095116;28;20108;-74
2022/04/05 12:43:32;;;;;;;32.67;8.27;;;;;;;;;;5087549;28;20112;-75
2022/04/05 12:46:10;;;;;;;31.52;7.43;;;;;;;;;;5085263;28;20051;-74
2022/04/05 12:48:37;;;;;;;26.95;7.65;;;;;;;;;;5094011;28;20145;-73
2022/04/05 12:51:05;;;;;;;27.95;7.47;;;;;;;;;;5085651;28;20059;-73
2022/04/05 12:53:35;;;;;;;29.50;8.43;;;;;;;;;;5083236;28;20052;-74
2022/04/05 12:56:08;;;;;;;40.90;7.90;;;;;;;;;;5083772;28;20048;-74
2022/04/05 12:58:40;;;;;;;42.55;8.52;;;;;;;;;;5079618;28;20506;-74
2022/04/05 13:01:18;;;;;;;37.03;8.32;;;;;;;;;;5087861;28;20565;-74
2022/04/05 13:03:45;;;;;;;38.85;8.25;;;;;;;;;;5081916;28;20051;-73
2022/04/05 13:06:22;;;;;;;33.05;7.90;;;;;;;;;;5110400;27;20053;-74
2022/04/05 13:08:50;;;;;;;36.25;9.02;;;;;;;;;;5072819;28;20494;-74
2022/04/05 13:11:29;;;;;;;33.28;8.20;;;;;;;;;;5080917;28;20165;-74
2022/04/05 13:14:07;;;;;;;34.95;9.10;;;;;;;;;;5071995;28;20101;-73
2022/04/05 13:16:35;;;;;;;36.63;9.05;;;;;;;;;;5079682;28;20395;-73
2022/04/05 13:19:09;;;;;;;41.00;9.18;;;;;;;;;;5084027;28;20521;-73
2022/04/05 13:21:44;;;;;;;39.65;9.20;;;;;;;;;;5073509;28;20153;-73
2022/04/05 13:24:12;;;;;;;37.10;9.25;;;;;;;;;;5082481;28;20409;-73
2022/04/05 13:26:41;;;;;;;23.67;8.73;;;;;;;;;;5081470;28;20044;-73
2022/04/05 13:29:10;;;;;;;34.03;9.15;;;;;;;;;;5086093;28;20487;-73
2022/04/05 13:31:41;;;;;;;43.28;9.50;;;;;;;;;;5083673;28;20061;-72
2022/04/05 13:34:09;;;;;;;39.15;9.20;;;;;;;;;;5113579;27;20414;-72
2022/04/05 13:36:37;;;;;;;31.38;8.27;;;;;;;;;;5113140;27;20521;-73
2022/04/05 13:39:04;;;;;;;37.72;8.57;;;;;;;;;;5080870;28;20055;-74
2022/04/05 13:41:33;;;;;;;35.10;8.18;;;;;;;;;;5079931;28;20055;-74
2022/04/05 13:44:02;;;;;;;31.65;8.57;;;;;;;;;;5077374;28;20518;-73
2022/04/05 13:46:31;;;;;;;28.70;8.75;;;;;;;;;;5079576;28;20075;-73
2022/04/05 13:48:58;;;;;;;35.13;8.68;;;;;;;;;;5082801;28;20223;-73
2022/04/05 13:51:26;;;;;;;34.70;8.32;;;;;;;;;;5080088;28;20514;-73
2022/04/05 13:53:54;;;;;;;42.20;8.18;;;;;;;;;;5085154;28;20059;-72
2022/04/05 13:56:21;;;;;;;34.78;8.25;;;;;;;;;;5082268;28;20055;-73
2022/04/05 13:58:49;;;;;;;45.40;8.70;;;;;;;;;;5079047;28;20371;-73
2022/04/05 14:01:17;;;;;;;26.52;7.15;;;;;;;;;;5114020;27;20090;-73
2022/04/05 14:03:44;;;;;;;45.65;8.73;;;;;;;;;;5079787;28;20051;-72
2022/04/05 14:06:12;;;;;;;34.78;7.70;;;;;;;;;;5083967;28;20603;-73
2022/04/05 14:08:39;;;;;;;27.50;7.05;;;;;;;;;;5083849;28;20074;-73
2022/04/05 14:11:06;;;;;;;29.58;7.22;;;;;;;;;;5075704;28;20056;-73
2022/04/05 14:13:34;;;;;;;25.83;7.25;;;;;;;;;;5080451;28;20048;-73
2022/04/05 14:16:01;;;;;;;28.05;7.10;;;;;;;;;;5083169;28;20060;-74
2022/04/05 14:18:30;;;;;;;29.02;7.72;;;;;;;;;;5083865;28;20180;-73
2022/04/05 14:20:57;;;;;;;31.77;8.00;;;;;;;;;;5083142;28;20134;-73
2022/04/05 14:23:24;;;;;;;34.30;8.23;;;;;;;;;;5084967;28;20051;-73
2022/04/05 14:25:51;;;;;;;32.95;8.13;;;;;;;;;;5085282;28;20055;-73
2022/04/05 14:28:18;;;;;;;36.38;8.27;;;;;;;;;;5075857;28;20048;-73
2022/04/05 14:30:46;;;;;;;28.33;7.70;;;;;;;;;;5082171;28;20406;-73
2022/04/05 14:33:13;;;;;;;30.13;8.15;;;;;;;;;;5084896;28;20055;-73
2022/04/05 14:35:43;;;;;;;34.60;7.88;;;;;;;;;;5088582;28;20051;-73
2022/04/05 14:38:10;;;;;;;36.80;8.45;;;;;;;;;;5083160;28;20070;-72
2022/04/05 14:40:38;;;;;;;33.33;7.57;;;;;;;;;;5083894;28;20137;-72
2022/04/05 14:43:05;;;;;;;31.35;7.25;;;;;;;;;;5080510;28;20051;-73
2022/04/05 14:45:33;;;;;;;28.15;6.60;;;;;;;;;;5081562;28;20059;-73
2022/04/05 14:48:01;;;;;;;29.13;6.65;;;;;;;;;;5079836;28;20134;-73